createdAt,value
2022-11-16T00:22:30.819Z,0.0
2022-11-16T00:27:27.952Z,0.0
2022-11-16T00:29:16.155Z,0.0
2022-11-16T00:36:56.444Z,0.0
2022-11-16T00:43:09.264Z,0.0
2022-11-16T00:49:03.954Z,0.0
2022-11-16T00:57:47.914Z,0.0
2022-11-16T01:02:45.313Z,0.0
2022-11-16T01:07:51.780Z,0.0
2022-11-16T01:13:32.345Z,0.0
2022-11-16T01:18:14.803Z,0.0
2022-11-16T01:23:41.207Z,0.0
2022-11-16T01:28:27.553Z,0.0
2022-11-16T01:33:35.500Z,0.0
2022-11-16T01:38:45.978Z,0.0
2022-11-16T01:43:48.265Z,0.0
2022-11-16T01:48:54.763Z,0.0
2022-11-16T01:54:01.189Z,0.0
2022-11-16T01:58:57.546Z,0.0
2022-11-16T02:04:03.971Z,0.0
2022-11-16T02:09:20.342Z,0.0
2022-11-16T02:14:46.771Z,0.0
2022-11-16T02:19:33.132Z,0.0
2022-11-16T02:24:43.060Z,0.0
2022-11-16T02:29:49.607Z,0.0
2022-11-16T02:34:46.008Z,0.0
2022-11-16T02:40:02.400Z,0.0
2022-11-16T02:45:08.755Z,0.0
2022-11-16T02:50:19.167Z,0.0
2022-11-16T02:55:25.526Z,0.0
2022-11-16T03:00:28.015Z,0.0
2022-11-16T03:05:38.419Z,0.0
2022-11-16T03:10:40.778Z,0.0
2022-11-16T03:16:15.236Z,0.0
2022-11-16T03:20:57.609Z,0.0
2022-11-16T03:25:59.957Z,0.0
2022-11-16T03:31:06.574Z,0.0
2022-11-16T03:48:53.636Z,0.0
2022-11-16T03:53:00.869Z,0.0
2022-11-16T03:58:07.243Z,0.0
2022-11-16T04:03:13.623Z,0.0
2022-11-16T04:08:10.013Z,0.0
2022-11-16T04:13:50.447Z,0.0
2022-11-16T04:18:33.127Z,0.0
2022-11-16T04:23:39.198Z,0.0
2022-11-16T04:29:00.246Z,0.0
2022-11-16T04:34:47.691Z,0.0
2022-11-16T04:39:55.128Z,0.0
2022-11-16T04:45:01.452Z,0.0
2022-11-16T04:50:11.848Z,0.0
2022-11-16T04:55:14.254Z,0.0
2022-11-16T05:00:20.713Z,0.0
2022-11-16T05:05:27.295Z,0.0
2022-11-16T05:10:33.844Z,0.0
2022-11-16T05:15:40.168Z,0.0
2022-11-16T05:20:46.556Z,0.0
2022-11-16T05:25:52.971Z,0.0
2022-11-16T05:30:59.439Z,0.0
2022-11-16T05:35:55.808Z,0.0
2022-11-16T05:41:02.226Z,0.0
2022-11-16T05:46:18.597Z,0.0
2022-11-16T05:51:25.053Z,0.0
2022-11-16T05:56:51.534Z,0.0
2022-11-16T06:01:41.823Z,0.0
2022-11-16T06:09:32.550Z,0.0
2022-11-16T06:11:50.580Z,0.0
2022-11-16T06:16:57.256Z,0.0
2022-11-16T06:22:02.367Z,0.0
2022-11-16T06:27:09.734Z,0.0
2022-11-16T06:32:16.246Z,0.0
2022-11-16T06:37:22.501Z,4.0
2022-11-16T06:42:32.888Z,4.0
2022-11-16T06:48:19.382Z,12.0
2022-11-16T06:52:41.745Z,16.0
2022-11-16T06:57:48.205Z,16.0
2022-11-16T07:02:54.597Z,56.0
2022-11-16T07:08:04.761Z,72.0
2022-11-16T07:29:32.541Z,136.0
2022-11-16T07:34:43.835Z,296.0
2022-11-16T07:39:36.190Z,452.0
2022-11-16T07:45:52.981Z,408.0
2022-11-16T07:49:58.971Z,376.0
2022-11-16T07:55:39.431Z,412.0
2022-11-16T08:00:46.834Z,600.0
2022-11-16T08:05:53.320Z,628.0
2022-11-16T08:10:59.726Z,780.0
2022-11-16T08:15:56.120Z,984.0
2022-11-16T08:21:02.692Z,1304.0
2022-11-16T08:26:18.993Z,1828.0
2022-11-16T08:31:25.428Z,2624.0
2022-11-16T08:36:31.968Z,3720.0
2022-11-16T08:41:38.280Z,2916.0
2022-11-16T08:52:29.813Z,5040.0
2022-11-16T08:57:37.314Z,4052.0
2022-11-16T09:02:43.697Z,3508.0
2022-11-16T09:07:50.228Z,5212.0
2022-11-16T09:12:56.501Z,5924.0
2022-11-16T09:18:02.898Z,6108.0
2022-11-16T09:28:08.809Z,7344.0
2022-11-16T09:29:26.842Z,8488.0
2022-11-16T09:33:45.236Z,8776.0
2022-11-16T09:39:56.776Z,9536.0
2022-11-16T09:45:08.222Z,8036.0
2022-11-16T09:50:10.592Z,8480.0
2022-11-16T09:55:17.033Z,11180.0
2022-11-16T10:00:23.624Z,10108.0
2022-11-16T10:05:28.976Z,9516.0
2022-11-16T10:10:36.369Z,5080.0
2022-11-16T10:15:42.911Z,17312.0
2022-11-16T10:20:49.169Z,12980.0
2022-11-16T10:25:45.531Z,5016.0
2022-11-16T10:31:02.086Z,11976.0
2022-11-16T10:36:28.407Z,18080.0
2022-11-16T10:42:26.926Z,64064.0
2022-11-16T10:47:21.427Z,14368.0
2022-11-16T10:51:26.582Z,13956.0
2022-11-16T10:56:34.002Z,6512.0
2022-11-16T11:01:30.460Z,79808.0
2022-11-16T11:07:59.765Z,10088.0
2022-11-16T11:13:06.380Z,64672.0
2022-11-16T11:23:43.853Z,89760.0
2022-11-16T11:29:10.335Z,76128.0
2022-11-16T11:36:42.046Z,6848.0
2022-11-16T11:44:51.718Z,79072.0
2022-11-16T11:49:58.955Z,90240.0
2022-11-16T11:54:45.686Z,91200.0
2022-11-16T11:59:47.680Z,73408.0
2022-11-16T12:05:13.244Z,79456.0
2022-11-16T12:12:10.464Z,75264.0
2022-11-16T12:15:42.171Z,80480.0
2022-11-16T12:20:48.678Z,80256.0
2022-11-16T12:31:39.413Z,73184.0
2022-11-16T12:37:06.857Z,81632.0
2022-11-16T12:41:53.166Z,64928.0
2022-11-16T12:46:49.532Z,22944.0
2022-11-16T12:53:06.153Z,59520.0
2022-11-16T12:57:12.450Z,57184.0
2022-11-16T13:02:18.809Z,56448.0
2022-11-16T13:07:25.212Z,60896.0
2022-11-16T13:12:31.604Z,70144.0
2022-11-16T13:17:37.949Z,8748.0
2022-11-16T13:22:44.319Z,13444.0
2022-11-16T13:28:10.900Z,13848.0
2022-11-16T13:33:21.174Z,55552.0
2022-11-16T13:38:03.492Z,11464.0
2022-11-16T13:43:09.992Z,58368.0
2022-11-16T13:48:16.400Z,58272.0
2022-11-16T13:58:49.208Z,50560.0
2022-11-16T14:03:35.764Z,43936.0
2022-11-16T14:08:41.935Z,42016.0
2022-11-16T14:13:48.307Z,39104.0
2022-11-16T14:19:18.763Z,27648.0
2022-11-16T14:24:35.195Z,3032.0
2022-11-16T14:29:42.562Z,3236.0
2022-11-16T14:35:09.080Z,3412.0
2022-11-16T14:41:07.440Z,2872.0
2022-11-16T14:45:25.730Z,2756.0
2022-11-16T14:52:28.362Z,2236.0
2022-11-16T14:55:42.496Z,2440.0
2022-11-16T15:00:20.833Z,2200.0
2022-11-16T15:05:51.245Z,1940.0
2022-11-16T15:10:33.698Z,1620.0
2022-11-16T15:15:38.966Z,1240.0
2022-11-16T15:22:18.569Z,968.0
2022-11-16T15:26:12.927Z,704.0
2022-11-16T15:30:59.151Z,508.0
2022-11-16T15:36:05.527Z,356.0
2022-11-16T15:41:32.009Z,236.0
2022-11-16T15:47:18.343Z,148.0
2022-11-16T15:51:28.673Z,84.0
2022-11-16T15:57:15.270Z,48.0
2022-11-16T16:01:41.500Z,20.0
2022-11-16T16:06:43.795Z,8.0
2022-11-16T16:11:50.169Z,4.0
2022-11-16T16:17:20.726Z,4.0
2022-11-16T16:22:54.046Z,0.0
2022-11-16T16:27:26.343Z,0.0
2022-11-16T16:32:18.695Z,0.0
2022-11-16T16:37:25.100Z,0.0
2022-11-16T16:42:51.488Z,0.0
2022-11-16T16:48:11.935Z,0.0
2022-11-16T16:53:09.410Z,0.0
2022-11-16T17:01:14.089Z,0.0
2022-11-16T17:03:32.368Z,0.0
2022-11-16T17:08:38.482Z,0.0
2022-11-16T17:13:44.833Z,0.0
2022-11-16T17:19:15.271Z,0.0
2022-11-16T17:23:57.752Z,0.0
2022-11-16T17:29:04.059Z,0.0
2022-11-16T17:34:13.522Z,0.0
2022-11-16T17:39:41.014Z,0.0
2022-11-16T17:44:23.219Z,0.0
2022-11-16T17:49:19.576Z,0.0
2022-11-16T17:54:36.080Z,0.0
2022-11-16T17:59:42.536Z,0.0
2022-11-16T18:04:51.192Z,0.0
2022-11-16T18:09:55.261Z,0.0
2022-11-16T18:15:26.911Z,0.0
2022-11-16T18:20:32.115Z,0.0
2022-11-16T18:25:14.471Z,0.0
2022-11-16T18:30:20.961Z,0.0
2022-11-16T18:35:27.492Z,0.0
2022-11-16T18:40:33.844Z,0.0
2022-11-16T18:45:30.263Z,0.0
2022-11-16T18:50:46.644Z,0.0
2022-11-16T18:55:57.638Z,0.0
2022-11-16T19:00:59.577Z,0.0
2022-11-16T19:06:05.864Z,0.0
2022-11-16T19:11:12.235Z,0.0
2022-11-16T19:16:08.739Z,0.0
2022-11-16T19:22:08.062Z,0.0
2022-11-16T19:26:31.395Z,0.0
2022-11-16T19:31:27.875Z,0.0
2022-11-16T19:36:44.153Z,0.0
2022-11-16T19:42:14.693Z,0.0
2022-11-16T19:46:58.186Z,0.0
2022-11-16T19:52:24.583Z,0.0
2022-11-16T19:57:14.928Z,0.0
2022-11-16T20:02:17.428Z,0.0
2022-11-16T20:07:13.810Z,0.0
2022-11-16T20:12:30.195Z,0.0
2022-11-16T20:17:36.689Z,0.0
2022-11-16T20:22:43.048Z,0.0
2022-11-16T20:27:49.439Z,0.0
2022-11-16T20:32:55.941Z,0.0
2022-11-16T20:38:02.207Z,0.0
2022-11-16T20:43:08.718Z,0.0
2022-11-16T20:48:05.401Z,0.0
2022-11-16T20:54:02.751Z,0.0
2022-11-16T20:59:10.148Z,0.0
2022-11-16T21:04:16.643Z,0.0
2022-11-16T21:09:50.942Z,0.0
2022-11-16T21:14:29.287Z,0.0
2022-11-16T21:19:35.781Z,0.0
2022-11-16T21:24:42.150Z,0.0
2022-11-16T21:30:08.576Z,0.0
2022-11-16T21:34:55.055Z,0.0
2022-11-16T21:40:21.328Z,0.0
2022-11-16T21:45:21.692Z,0.0
2022-11-16T21:50:33.581Z,0.0
2022-11-16T21:55:43.476Z,0.0
2022-11-16T22:00:26.845Z,0.0
2022-11-16T22:05:33.282Z,0.0
2022-11-16T22:10:39.667Z,0.0
2022-11-16T22:15:46.065Z,0.0
2022-11-16T22:21:12.518Z,0.0
2022-11-16T22:26:22.868Z,0.0
2022-11-16T22:31:05.260Z,0.0
2022-11-16T22:36:11.672Z,0.0
2022-11-16T22:41:08.260Z,0.0
2022-11-16T22:46:48.756Z,0.0
2022-11-16T22:51:55.059Z,0.0
2022-11-16T22:57:15.725Z,0.0
2022-11-16T23:02:21.875Z,0.0
2022-11-16T23:07:33.302Z,0.0
2022-11-16T23:12:35.753Z,0.0
2022-11-16T23:17:42.013Z,0.0
2022-11-16T23:25:45.788Z,0.0
2022-11-16T23:29:39.370Z,0.0
2022-11-16T23:34:12.729Z,0.0
2022-11-16T23:39:29.247Z,0.0
2022-11-16T23:44:39.629Z,0.0
2022-11-16T23:50:02.159Z,0.0
2022-11-16T23:54:48.404Z,0.0
2022-11-16T23:59:44.764Z,0.0
